createdAt,value
2018-07-26T00:01:11.366Z,2.80
2018-07-26T00:03:40.442Z,2.73
2018-07-26T00:06:09.574Z,3.23
2018-07-26T00:08:38.791Z,3.10
2018-07-26T00:11:07.929Z,2.10
2018-07-26T00:13:37.075Z,2.67
2018-07-26T00:16:06.532Z,2.83
2018-07-26T00:18:35.654Z,3.17
2018-07-26T00:21:05.072Z,2.83
2018-07-26T00:23:34.153Z,3.30
2018-07-26T00:26:03.950Z,2.60
2018-07-26T00:28:33.082Z,2.57
2018-07-26T00:31:02.225Z,3.23
2018-07-26T00:33:32.565Z,3.10
2018-07-26T00:36:01.631Z,3.10
2018-07-26T00:38:30.710Z,2.60
2018-07-26T00:40:59.816Z,2.40
2018-07-26T00:43:28.984Z,3.10
2018-07-26T00:45:58.060Z,2.93
2018-07-26T00:48:27.328Z,2.90
2018-07-26T00:50:56.457Z,3.13
2018-07-26T00:53:25.558Z,2.27
2018-07-26T00:55:54.701Z,2.27
2018-07-26T00:58:23.731Z,2.97
2018-07-26T01:00:52.780Z,3.10
2018-07-26T01:03:21.886Z,2.80
2018-07-26T01:05:50.967Z,2.60
2018-07-26T01:08:20.082Z,2.73
2018-07-26T01:10:49.231Z,2.70
2018-07-26T01:13:18.747Z,2.63
2018-07-26T01:15:47.865Z,3.27
2018-07-26T01:18:16.901Z,3.27
2018-07-26T01:20:46.033Z,2.63
2018-07-26T01:23:15.278Z,2.50
2018-07-26T01:25:44.474Z,2.60
2018-07-26T01:28:13.540Z,2.87
2018-07-26T01:30:42.690Z,3.00
2018-07-26T01:33:11.697Z,2.33
2018-07-26T01:35:40.775Z,2.13
2018-07-26T01:38:10.157Z,2.20
2018-07-26T01:40:39.226Z,2.70
2018-07-26T01:43:18.977Z,2.60
2018-07-26T01:45:48.155Z,2.40
2018-07-26T01:48:17.370Z,2.20
2018-07-26T01:50:46.520Z,2.43
2018-07-26T01:53:15.593Z,2.43
2018-07-26T01:55:44.615Z,3.10
2018-07-26T01:58:13.694Z,2.50
2018-07-26T02:00:42.904Z,2.83
2018-07-26T02:03:11.959Z,2.70
2018-07-26T02:05:41.112Z,3.57
2018-07-26T02:08:10.618Z,2.20
2018-07-26T02:10:39.678Z,2.70
2018-07-26T02:13:08.824Z,2.37
2018-07-26T02:15:37.932Z,1.90
2018-07-26T02:18:07.083Z,2.07
2018-07-26T02:20:36.126Z,2.10
2018-07-26T02:23:05.302Z,2.10
2018-07-26T02:25:34.455Z,2.43
2018-07-26T02:28:03.646Z,2.97
2018-07-26T02:30:32.714Z,3.10
2018-07-26T02:33:02.131Z,2.40
2018-07-26T02:35:31.271Z,2.63
2018-07-26T02:38:01.075Z,2.60
2018-07-26T02:40:30.409Z,2.90
2018-07-26T02:42:59.513Z,3.07
2018-07-26T02:45:28.757Z,2.37
2018-07-26T02:47:57.822Z,2.40
2018-07-26T02:50:26.913Z,2.97
2018-07-26T02:52:56.487Z,2.43
2018-07-26T02:55:25.661Z,3.10
2018-07-26T02:57:55.004Z,3.10
2018-07-26T03:00:24.083Z,2.10
2018-07-26T03:02:53.530Z,2.70
2018-07-26T03:05:22.706Z,2.53
2018-07-26T03:07:51.886Z,2.70
2018-07-26T03:10:20.997Z,2.57
2018-07-26T03:12:50.163Z,2.40
2018-07-26T03:15:19.507Z,3.00
2018-07-26T03:17:48.546Z,2.63
2018-07-26T03:20:17.767Z,1.90
2018-07-26T03:22:46.804Z,2.73
2018-07-26T03:25:15.936Z,2.90
2018-07-26T03:27:45.434Z,2.33
2018-07-26T03:30:14.791Z,2.83
2018-07-26T03:32:43.793Z,3.17
2018-07-26T03:35:12.909Z,2.80
2018-07-26T03:37:41.955Z,2.47
2018-07-26T03:40:11.005Z,3.37
2018-07-26T03:42:40.152Z,3.17
2018-07-26T03:45:09.414Z,2.60
2018-07-26T03:47:38.669Z,2.87
2018-07-26T03:50:07.772Z,2.50
2018-07-26T03:52:36.858Z,2.40
2018-07-26T03:55:05.952Z,3.03
2018-07-26T03:57:35.106Z,3.13
2018-07-26T04:00:04.274Z,2.73
2018-07-26T04:02:33.384Z,2.43
2018-07-26T04:05:02.466Z,3.03
2018-07-26T04:07:31.684Z,2.20
2018-07-26T04:10:00.816Z,2.50
2018-07-26T04:12:30.679Z,2.20
2018-07-26T04:14:59.867Z,2.23
2018-07-26T04:17:28.964Z,2.50
2018-07-26T04:19:58.899Z,2.87
2018-07-26T04:22:28.080Z,2.40
2018-07-26T04:24:57.191Z,2.53
2018-07-26T04:27:26.376Z,2.20
2018-07-26T04:29:55.504Z,3.13
2018-07-26T04:32:24.846Z,2.67
2018-07-26T04:34:54.051Z,2.70
2018-07-26T04:37:23.303Z,2.90
2018-07-26T04:39:52.412Z,2.83
2018-07-26T04:42:21.526Z,2.63
2018-07-26T04:44:50.743Z,2.83
2018-07-26T04:47:20.699Z,3.50
2018-07-26T04:49:49.771Z,2.83
2018-07-26T04:52:18.948Z,2.77
2018-07-26T04:54:48.373Z,2.50
2018-07-26T04:57:17.430Z,3.13
2018-07-26T04:59:46.951Z,2.93
2018-07-26T05:02:16.083Z,3.50
2018-07-26T05:04:45.137Z,3.73
2018-07-26T05:07:14.304Z,3.43
2018-07-26T05:09:44.114Z,2.57
2018-07-26T05:12:13.249Z,3.30
2018-07-26T05:14:42.345Z,3.50
2018-07-26T05:17:11.685Z,4.60
2018-07-26T05:19:40.795Z,3.90
2018-07-26T05:22:09.850Z,4.67
2018-07-26T05:24:39.072Z,4.60
2018-07-26T05:27:08.235Z,4.50
2018-07-26T05:29:37.702Z,4.70
2018-07-26T05:32:06.811Z,4.93
2018-07-26T05:34:36.109Z,4.57
2018-07-26T05:37:05.422Z,4.43
2018-07-26T05:39:34.560Z,5.00
2018-07-26T05:42:03.845Z,4.20
2018-07-26T05:44:33.826Z,4.20
2018-07-26T05:47:03.747Z,5.00
2018-07-26T05:49:32.894Z,4.87
2018-07-26T05:52:01.988Z,4.93
2018-07-26T05:54:31.146Z,5.00
2018-07-26T05:57:00.259Z,4.83
2018-07-26T05:59:29.999Z,5.60
2018-07-26T06:01:59.613Z,5.10
2018-07-26T06:04:30.538Z,6.43
2018-07-26T06:07:01.051Z,4.53
2018-07-26T06:09:30.259Z,4.80
2018-07-26T06:11:59.748Z,5.43
2018-07-26T06:14:29.955Z,5.80
2018-07-26T06:16:59.279Z,5.00
2018-07-26T06:19:28.557Z,6.53
2018-07-26T06:21:57.869Z,5.30
2018-07-26T06:24:27.085Z,6.30
2018-07-26T06:26:56.421Z,4.80
2018-07-26T06:29:25.683Z,6.00
2018-07-26T06:31:55.683Z,4.10
2018-07-26T06:34:24.836Z,4.30
2018-07-26T06:36:54.297Z,5.10
2018-07-26T06:39:23.621Z,6.27
2018-07-26T06:41:52.791Z,4.50
2018-07-26T06:44:24.034Z,5.17
2018-07-26T06:46:53.240Z,4.40
2018-07-26T06:49:22.520Z,3.40
2018-07-26T06:51:51.812Z,4.20
2018-07-26T06:54:20.852Z,4.37
2018-07-26T06:56:51.577Z,4.77
2018-07-26T06:59:21.941Z,4.90
2018-07-26T07:01:51.116Z,5.13
2018-07-26T07:04:21.086Z,3.80
2018-07-26T07:06:50.407Z,3.73
2018-07-26T07:09:19.602Z,3.60
2018-07-26T07:11:49.526Z,3.87
2018-07-26T07:14:18.816Z,3.20
2018-07-26T07:16:48.001Z,3.50
2018-07-26T07:19:17.138Z,3.30
2018-07-26T07:21:46.618Z,2.90
2018-07-26T07:24:20.723Z,2.77
2018-07-26T07:26:51.260Z,3.40
2018-07-26T07:29:21.406Z,3.40
2018-07-26T07:31:51.005Z,3.10
2018-07-26T07:34:20.197Z,3.00
2018-07-26T07:36:49.642Z,3.63
2018-07-26T07:39:18.864Z,4.20
2018-07-26T07:41:48.106Z,3.63
2018-07-26T07:44:17.194Z,3.27
2018-07-26T07:46:46.487Z,3.00
2018-07-26T07:49:15.901Z,2.97
2018-07-26T07:51:45.637Z,4.33
2018-07-26T07:54:14.826Z,3.30
2018-07-26T07:56:43.926Z,4.40
2018-07-26T07:59:13.111Z,3.23
2018-07-26T08:01:42.265Z,2.50
2018-07-26T08:04:11.401Z,3.70
2018-07-26T08:06:40.466Z,3.60
2018-07-26T08:09:12.111Z,3.67
2018-07-26T08:11:41.409Z,4.07
2018-07-26T08:14:10.929Z,3.27
2018-07-26T08:16:40.045Z,2.97
2018-07-26T08:19:09.324Z,2.80
2018-07-26T08:21:38.423Z,3.07
2018-07-26T08:24:07.679Z,3.00
2018-07-26T08:26:37.649Z,3.93
2018-07-26T08:29:06.757Z,2.90
2018-07-26T08:31:35.960Z,3.40
2018-07-26T08:34:05.095Z,2.90
2018-07-26T08:36:34.337Z,3.00
2018-07-26T08:39:03.583Z,2.87
2018-07-26T08:41:32.931Z,2.60
2018-07-26T08:44:02.030Z,2.93
2018-07-26T08:46:31.365Z,2.73
2018-07-26T08:49:00.616Z,3.00
2018-07-26T08:51:29.646Z,3.10
2018-07-26T08:53:59.129Z,2.47
2018-07-26T08:56:28.252Z,2.33
2018-07-26T08:58:57.368Z,2.97
2018-07-26T09:01:26.438Z,3.70
2018-07-26T09:03:55.641Z,3.10
2018-07-26T09:06:24.684Z,2.60
2018-07-26T09:08:53.792Z,3.30
2018-07-26T09:11:22.828Z,3.30
2018-07-26T09:13:52.003Z,3.40
2018-07-26T09:16:21.102Z,3.43
2018-07-26T09:18:50.278Z,2.90
2018-07-26T09:21:19.343Z,2.77
2018-07-26T09:23:48.554Z,2.50
2018-07-26T09:26:17.621Z,3.70
2018-07-26T09:28:47.509Z,3.30
2018-07-26T09:31:16.801Z,4.03
2018-07-26T09:33:45.990Z,3.53
2018-07-26T09:36:16.541Z,3.13
2018-07-26T09:38:45.821Z,3.00
2018-07-26T09:41:15.419Z,3.10
2018-07-26T09:43:45.277Z,3.50
2018-07-26T09:46:14.855Z,2.57
2018-07-26T09:48:44.795Z,3.03
2018-07-26T09:51:14.623Z,2.80
2018-07-26T09:53:43.983Z,3.00
2018-07-26T09:56:13.154Z,2.53
2018-07-26T09:58:42.189Z,3.10
2018-07-26T10:01:16.520Z,2.80
2018-07-26T10:03:45.530Z,3.00
2018-07-26T10:06:14.744Z,3.37
2018-07-26T10:08:43.854Z,2.90
2018-07-26T10:11:12.934Z,2.30
2018-07-26T10:13:42.199Z,2.50
2018-07-26T10:16:11.280Z,2.50
2018-07-26T10:18:40.463Z,3.57
2018-07-26T10:21:09.517Z,2.67
2018-07-26T10:23:38.735Z,3.37
2018-07-26T10:26:07.855Z,3.10
2018-07-26T10:28:37.823Z,3.20
2018-07-26T10:31:07.642Z,3.60
2018-07-26T10:33:36.746Z,3.27
2018-07-26T10:36:06.267Z,3.30
2018-07-26T10:38:35.304Z,3.23
2018-07-26T10:41:04.574Z,3.70
2018-07-26T10:43:33.687Z,4.30
2018-07-26T10:46:03.298Z,3.77
2018-07-26T10:48:32.651Z,3.57
2018-07-26T10:51:01.811Z,3.80
2018-07-26T10:53:31.000Z,3.57
2018-07-26T10:56:00.878Z,4.07
2018-07-26T10:58:29.984Z,4.10
2018-07-26T11:00:59.189Z,3.40
2018-07-26T11:03:28.248Z,4.50
2018-07-26T11:05:57.501Z,3.70
2018-07-26T11:08:26.674Z,3.60
2018-07-26T11:10:55.898Z,3.63
2018-07-26T11:13:25.077Z,4.07
2018-07-26T11:15:54.380Z,4.37
2018-07-26T11:18:23.630Z,3.60
2018-07-26T11:20:52.789Z,3.17
2018-07-26T11:23:21.939Z,4.63
2018-07-26T11:25:51.189Z,3.60
2018-07-26T11:28:20.248Z,3.60
2018-07-26T11:30:49.378Z,3.53
2018-07-26T11:33:18.442Z,3.70
2018-07-26T11:35:47.918Z,3.80
2018-07-26T11:38:17.074Z,3.50
2018-07-26T11:40:46.843Z,3.17
2018-07-26T11:43:16.058Z,3.87
2018-07-26T11:45:45.743Z,3.50
2018-07-26T11:48:14.846Z,3.50
2018-07-26T11:50:44.004Z,4.43
2018-07-26T11:53:13.491Z,4.20
2018-07-26T11:55:42.681Z,3.90
2018-07-26T11:58:11.993Z,3.33
2018-07-26T12:00:41.186Z,4.17
2018-07-26T12:03:10.497Z,4.37
2018-07-26T12:05:39.999Z,3.20
2018-07-26T12:08:09.221Z,3.97
2018-07-26T12:10:38.499Z,4.00
2018-07-26T12:13:08.735Z,3.90
2018-07-26T12:15:37.833Z,3.87
2018-07-26T12:18:07.135Z,3.87
2018-07-26T12:20:36.221Z,3.53
2018-07-26T12:23:05.517Z,4.07
2018-07-26T12:25:34.581Z,3.90
2018-07-26T12:28:03.839Z,4.47
2018-07-26T12:30:32.911Z,3.67
2018-07-26T12:33:02.056Z,4.00
2018-07-26T12:35:31.118Z,3.10
2018-07-26T12:38:00.325Z,3.90
2018-07-26T12:40:29.478Z,4.20
2018-07-26T12:42:58.784Z,3.40
2018-07-26T12:45:27.975Z,3.73
2018-07-26T12:47:57.085Z,3.50
2018-07-26T12:50:26.266Z,3.60
2018-07-26T12:52:55.462Z,3.90
2018-07-26T12:55:24.683Z,3.40
2018-07-26T12:57:53.927Z,3.27
2018-07-26T13:00:23.177Z,2.93
2018-07-26T13:02:52.392Z,3.70
2018-07-26T13:05:21.623Z,3.40
2018-07-26T13:07:50.834Z,2.97
2018-07-26T13:10:19.892Z,4.03
2018-07-26T13:12:49.183Z,3.30
2018-07-26T13:15:18.325Z,3.30
2018-07-26T13:17:47.553Z,3.57
2018-07-26T13:20:17.370Z,3.30
2018-07-26T13:22:46.756Z,3.27
2018-07-26T13:25:15.894Z,3.27
2018-07-26T13:27:45.057Z,4.10
2018-07-26T13:30:14.239Z,3.53
2018-07-26T13:32:43.377Z,3.00
2018-07-26T13:35:12.907Z,3.80
2018-07-26T13:37:42.148Z,4.20
2018-07-26T13:40:11.170Z,3.00
2018-07-26T13:42:40.299Z,3.57
2018-07-26T13:45:10.583Z,3.10
2018-07-26T13:47:39.833Z,3.33
2018-07-26T13:50:09.088Z,2.83
2018-07-26T13:52:39.160Z,2.30
2018-07-26T13:55:08.262Z,2.90
2018-07-26T13:57:37.380Z,2.87
2018-07-26T14:00:06.947Z,3.10
2018-07-26T14:02:36.727Z,3.50
2018-07-26T14:05:06.264Z,3.10
2018-07-26T14:07:35.580Z,3.40
2018-07-26T14:10:05.701Z,3.17
2018-07-26T14:12:35.042Z,3.10
2018-07-26T14:15:04.351Z,3.33
2018-07-26T14:17:33.723Z,3.30
2018-07-26T14:20:02.956Z,2.90
2018-07-26T14:22:32.108Z,2.87
2018-07-26T14:25:01.683Z,3.10
2018-07-26T14:27:30.856Z,3.13
2018-07-26T14:29:59.985Z,3.20
2018-07-26T14:32:29.455Z,3.30
2018-07-26T14:34:59.772Z,3.00
2018-07-26T14:37:30.544Z,3.30
2018-07-26T14:40:00.534Z,3.00
2018-07-26T14:42:30.204Z,3.70
2018-07-26T14:44:59.989Z,3.00
2018-07-26T14:47:30.183Z,3.70
2018-07-26T14:49:59.934Z,3.40
2018-07-26T14:52:29.496Z,3.63
2018-07-26T14:54:59.632Z,3.13
2018-07-26T14:57:29.049Z,3.50
2018-07-26T14:59:59.432Z,3.70
2018-07-26T15:02:30.838Z,3.27
2018-07-26T15:05:00.966Z,3.70
2018-07-26T15:07:30.509Z,2.93
2018-07-26T15:10:00.765Z,3.20
2018-07-26T15:12:30.110Z,2.67
2018-07-26T15:14:59.667Z,3.03
2018-07-26T15:17:29.600Z,3.17
2018-07-26T15:19:58.797Z,2.87
2018-07-26T15:22:27.976Z,3.00
2018-07-26T15:24:57.169Z,2.80
2018-07-26T15:27:26.229Z,3.43
2018-07-26T15:29:55.484Z,5.37
2018-07-26T15:32:24.606Z,3.30
2018-07-26T15:34:54.135Z,3.67
2018-07-26T15:37:23.174Z,3.90
2018-07-26T15:39:52.380Z,3.60
2018-07-26T15:42:21.429Z,3.13
2018-07-26T15:44:50.598Z,3.97
2018-07-26T15:47:19.959Z,3.17
2018-07-26T15:49:49.457Z,3.70
2018-07-26T15:52:18.703Z,3.53
2018-07-26T15:54:47.932Z,4.00
2018-07-26T15:57:17.133Z,4.40
2018-07-26T15:59:46.451Z,4.63
2018-07-26T16:02:15.576Z,4.33
2018-07-26T16:04:44.809Z,4.37
2018-07-26T16:07:14.005Z,3.63
2018-07-26T16:09:44.244Z,3.80
2018-07-26T16:12:13.463Z,3.33
2018-07-26T16:14:42.585Z,4.50
2018-07-26T16:17:11.733Z,4.80
2018-07-26T16:19:40.839Z,4.20
2018-07-26T16:22:10.241Z,4.70
2018-07-26T16:24:39.480Z,4.67
2018-07-26T16:27:08.592Z,5.00
2018-07-26T16:29:37.747Z,4.63
2018-07-26T16:32:06.903Z,5.03
2018-07-26T16:34:36.360Z,5.30
2018-07-26T16:37:05.929Z,4.83
2018-07-26T16:39:35.556Z,4.47
2018-07-26T16:42:04.803Z,4.77
2018-07-26T16:44:34.144Z,5.03
2018-07-26T16:47:03.268Z,4.97
2018-07-26T16:49:32.492Z,3.77
2018-07-26T16:52:02.041Z,4.00
2018-07-26T16:54:31.268Z,4.83
2018-07-26T16:57:00.335Z,4.90
2018-07-26T16:59:29.466Z,4.20
2018-07-26T17:01:58.708Z,4.83
2018-07-26T17:04:28.629Z,4.27
2018-07-26T17:06:58.317Z,4.90
2018-07-26T17:09:27.525Z,4.30
2018-07-26T17:11:56.579Z,5.10
2018-07-26T17:14:25.850Z,4.90
2018-07-26T17:16:54.973Z,4.77
2018-07-26T17:19:24.379Z,4.80
2018-07-26T17:21:53.560Z,4.57
2018-07-26T17:24:22.760Z,4.80
2018-07-26T17:26:51.993Z,4.53
2018-07-26T17:29:21.433Z,4.80
2018-07-26T17:31:50.745Z,4.77
2018-07-26T17:34:19.817Z,5.00
2018-07-26T17:36:49.048Z,4.20
2018-07-26T17:39:18.305Z,4.73
2018-07-26T17:41:47.523Z,4.50
2018-07-26T17:44:16.669Z,4.40
2018-07-26T17:46:45.781Z,4.73
2018-07-26T17:49:15.074Z,4.07
2018-07-26T17:51:44.240Z,4.83
2018-07-26T17:54:13.621Z,4.73
2018-07-26T17:56:42.774Z,4.53
2018-07-26T17:59:11.950Z,3.93
2018-07-26T18:01:41.024Z,4.03
2018-07-26T18:04:10.188Z,3.87
2018-07-26T18:06:39.235Z,3.80
2018-07-26T18:09:09.496Z,4.13
2018-07-26T18:11:38.845Z,4.40
2018-07-26T18:14:08.102Z,4.10
2018-07-26T18:16:37.439Z,3.83
2018-07-26T18:19:06.709Z,4.67
2018-07-26T18:21:35.803Z,4.43
2018-07-26T18:24:05.072Z,4.80
2018-07-26T18:26:34.308Z,5.00
2018-07-26T18:29:04.032Z,5.30
2018-07-26T18:31:33.244Z,4.50
2018-07-26T18:34:02.530Z,4.47
2018-07-26T18:36:33.022Z,4.93
2018-07-26T18:39:02.199Z,4.57
2018-07-26T18:41:31.345Z,4.70
2018-07-26T18:44:00.637Z,4.87
2018-07-26T18:46:29.757Z,5.03
2018-07-26T18:48:58.890Z,4.73
2018-07-26T18:51:28.321Z,4.70
2018-07-26T18:53:57.699Z,4.60
2018-07-26T18:56:26.818Z,4.47
2018-07-26T18:58:56.963Z,4.60
2018-07-26T19:01:26.166Z,5.00
2018-07-26T19:03:55.374Z,3.90
2018-07-26T19:06:24.519Z,5.03
2018-07-26T19:08:54.601Z,4.10
2018-07-26T19:11:23.816Z,4.30
2018-07-26T19:13:53.446Z,4.10
2018-07-26T19:16:23.237Z,4.13
2018-07-26T19:18:52.436Z,4.63
2018-07-26T19:21:21.855Z,4.83
2018-07-26T19:23:51.287Z,4.10
2018-07-26T19:26:21.585Z,5.73
2018-07-26T19:28:50.698Z,4.20
2018-07-26T19:31:20.138Z,4.97
2018-07-26T19:33:49.796Z,4.60
2018-07-26T19:36:19.825Z,4.90
2018-07-26T19:38:49.425Z,4.83
2018-07-26T19:41:18.744Z,4.50
2018-07-26T19:43:48.316Z,4.67
2018-07-26T19:46:17.696Z,4.90
2018-07-26T19:48:49.514Z,5.70
2018-07-26T19:51:19.614Z,4.73
2018-07-26T19:53:49.016Z,4.70
2018-07-26T19:56:18.303Z,5.33
2018-07-26T19:58:48.034Z,5.00
2018-07-26T20:01:17.600Z,4.23
2018-07-26T20:03:47.389Z,5.47
2018-07-26T20:06:16.662Z,4.90
2018-07-26T20:08:46.387Z,4.73
2018-07-26T20:11:16.508Z,5.40
2018-07-26T20:13:45.735Z,4.97
2018-07-26T20:16:14.926Z,5.00
2018-07-26T20:18:44.091Z,5.60
2018-07-26T20:21:13.239Z,4.57
2018-07-26T20:23:42.366Z,5.47
2018-07-26T20:26:11.564Z,5.60
2018-07-26T20:28:41.017Z,5.50
2018-07-26T20:31:12.304Z,4.50
2018-07-26T20:33:41.372Z,4.43
2018-07-26T20:36:10.802Z,4.40
2018-07-26T20:38:39.917Z,4.13
2018-07-26T20:41:09.220Z,4.40
2018-07-26T20:43:38.415Z,4.87
2018-07-26T20:46:07.770Z,5.07
2018-07-26T20:48:38.171Z,5.10
2018-07-26T20:51:07.627Z,6.60
2018-07-26T20:53:36.801Z,5.77
2018-07-26T20:56:06.130Z,6.70
2018-07-26T20:58:35.479Z,6.63
2018-07-26T21:01:04.801Z,6.43
2018-07-26T21:03:34.953Z,6.00
2018-07-26T21:06:04.136Z,5.67
2018-07-26T21:08:33.251Z,5.93
2018-07-26T21:11:02.485Z,4.90
2018-07-26T21:13:31.658Z,5.03
2018-07-26T21:16:00.780Z,5.53
2018-07-26T21:18:29.924Z,5.10
2018-07-26T21:20:59.014Z,5.10
2018-07-26T21:23:28.329Z,4.23
2018-07-26T21:25:57.439Z,5.53
2018-07-26T21:28:26.630Z,4.60
2018-07-26T21:30:55.830Z,6.07
2018-07-26T21:33:24.967Z,4.23
2018-07-26T21:35:54.525Z,5.67
2018-07-26T21:38:23.641Z,4.63
2018-07-26T21:40:52.946Z,5.10
2018-07-26T21:43:22.092Z,4.50
2018-07-26T21:45:51.319Z,4.93
2018-07-26T21:48:20.398Z,4.90
2018-07-26T21:50:49.608Z,5.90
2018-07-26T21:53:18.716Z,5.20
2018-07-26T21:55:47.891Z,5.90
2018-07-26T21:58:16.935Z,4.90
2018-07-26T22:01:00.250Z,5.40
2018-07-26T22:03:30.539Z,5.27
2018-07-26T22:05:59.661Z,6.00
2018-07-26T22:08:28.751Z,5.03
2018-07-26T22:10:57.964Z,5.63
2018-07-26T22:13:26.973Z,5.03
2018-07-26T22:15:56.160Z,5.40
2018-07-26T22:18:25.888Z,5.30
2018-07-26T22:20:55.026Z,5.20
2018-07-26T22:23:24.237Z,5.10
2018-07-26T22:25:53.408Z,5.67
2018-07-26T22:28:22.449Z,3.93
2018-07-26T22:30:51.673Z,4.90
2018-07-26T22:33:20.735Z,5.47
2018-07-26T22:35:49.888Z,5.37
2018-07-26T22:38:19.076Z,5.60
2018-07-26T22:40:48.233Z,5.40
2018-07-26T22:43:17.517Z,5.40
2018-07-26T22:45:46.628Z,5.27
2018-07-26T22:48:15.953Z,5.13
2018-07-26T22:50:45.165Z,4.60
2018-07-26T22:53:14.167Z,5.07
2018-07-26T22:55:43.194Z,6.30
2018-07-26T22:58:12.301Z,5.63
2018-07-26T23:00:41.317Z,5.13
2018-07-26T23:03:10.418Z,5.13
2018-07-26T23:05:39.479Z,4.63
2018-07-26T23:08:08.588Z,5.93
2018-07-26T23:10:37.929Z,5.37
2018-07-26T23:13:07.106Z,5.37
2018-07-26T23:15:36.135Z,5.57
2018-07-26T23:18:05.340Z,5.40
2018-07-26T23:20:34.480Z,5.37
2018-07-26T23:23:03.693Z,4.77
2018-07-26T23:25:32.989Z,5.43
2018-07-26T23:28:01.975Z,5.63
2018-07-26T23:30:31.086Z,5.63
2018-07-26T23:33:00.121Z,6.03
2018-07-26T23:35:29.253Z,4.77
2018-07-26T23:37:58.250Z,5.47
2018-07-26T23:40:27.383Z,5.63
2018-07-26T23:42:56.515Z,5.33
2018-07-26T23:45:26.050Z,6.40
2018-07-26T23:47:55.151Z,5.00
2018-07-26T23:50:24.261Z,4.67
2018-07-26T23:52:53.353Z,5.83
2018-07-26T23:55:23.335Z,5.27
2018-07-26T23:57:52.470Z,6.37
